createdAt,value
2022-11-17T00:00:42.173Z,96601.66
2022-11-17T00:03:12.860Z,96590.34
2022-11-17T00:05:39.440Z,96591.19
2022-11-17T00:08:06.143Z,96594.69
2022-11-17T00:10:32.764Z,96587.69
2022-11-17T00:13:28.665Z,96580.25
2022-11-17T00:15:55.228Z,96568.22
2022-11-17T00:18:40.613Z,96563.91
2022-11-17T00:21:20.005Z,96562.31
2022-11-17T00:23:50.735Z,96563.06
2022-11-17T00:26:58.898Z,96557.53
2022-11-17T00:29:25.609Z,96542.69
2022-11-17T00:32:10.974Z,96542.66
2022-11-17T00:34:37.699Z,96534.50
2022-11-17T00:37:05.502Z,96540.28
2022-11-17T00:39:32.819Z,96534.06
2022-11-17T00:41:59.878Z,96531.00
2022-11-17T00:44:26.931Z,96538.03
2022-11-17T00:46:53.722Z,96532.66
2022-11-17T00:49:21.705Z,96536.53
2022-11-17T00:51:48.395Z,96545.91
2022-11-17T00:54:15.581Z,96549.13
2022-11-17T00:56:42.261Z,96534.38
2022-11-17T00:59:09.129Z,96531.22
2022-11-17T01:01:36.150Z,96521.47
2022-11-17T01:04:03.766Z,96521.94
2022-11-17T01:09:08.225Z,96528.53
2022-11-17T01:11:34.861Z,96519.56
2022-11-17T01:14:01.571Z,96511.34
2022-11-17T01:16:29.314Z,96508.59
2022-11-17T01:18:55.996Z,96498.09
2022-11-17T01:21:25.217Z,96494.97
2022-11-17T01:23:54.850Z,96496.50
2022-11-17T01:26:27.956Z,96483.28
2022-11-17T01:28:55.174Z,96476.69
2022-11-17T01:31:24.686Z,96476.66
2022-11-17T01:33:51.877Z,96474.31
2022-11-17T01:36:29.100Z,96466.19
2022-11-17T01:41:28.637Z,96443.16
2022-11-17T01:44:19.381Z,96446.59
2022-11-17T01:46:46.350Z,96444.63
2022-11-17T01:49:18.495Z,96449.31
2022-11-17T01:51:51.540Z,96444.63
2022-11-17T01:54:23.136Z,96434.16
2022-11-17T01:56:53.927Z,96439.19
2022-11-17T01:59:31.645Z,96424.16
2022-11-17T02:01:58.900Z,96418.31
2022-11-17T02:04:29.825Z,96413.69
2022-11-17T02:07:03.636Z,96410.94
2022-11-17T02:09:31.744Z,96413.69
2022-11-17T02:11:59.218Z,96405.53
2022-11-17T02:14:25.895Z,96393.44
2022-11-17T02:16:52.582Z,96389.16
2022-11-17T02:19:24.042Z,96382.09
2022-11-17T02:22:20.883Z,96369.25
2022-11-17T02:25:25.724Z,96366.13
2022-11-17T02:28:17.854Z,96359.91
2022-11-17T02:31:03.826Z,96363.41
2022-11-17T02:33:42.618Z,96343.88
2022-11-17T02:36:19.144Z,96346.72
2022-11-17T02:39:11.970Z,96342.09
2022-11-17T02:41:50.266Z,96332.41
2022-11-17T02:44:25.773Z,96333.22
2022-11-17T02:47:03.381Z,96326.25
2022-11-17T02:49:36.520Z,96322.00
2022-11-17T02:52:05.766Z,96307.56
2022-11-17T02:54:33.223Z,96279.53
2022-11-17T02:57:00.347Z,96266.31
2022-11-17T02:59:35.442Z,96267.25
2022-11-17T03:02:28.942Z,96276.19
2022-11-17T03:05:09.989Z,96281.94
2022-11-17T03:10:42.012Z,96280.84
2022-11-17T03:13:18.636Z,96289.34
2022-11-17T03:15:52.373Z,96298.28
2022-11-17T03:18:37.884Z,96307.94
2022-11-17T03:21:07.508Z,96318.03
2022-11-17T03:23:43.977Z,96323.78
2022-11-17T03:26:16.878Z,96329.56
2022-11-17T03:28:46.616Z,96327.91
2022-11-17T03:31:16.559Z,96324.75
2022-11-17T03:33:48.754Z,96321.25
2022-11-17T03:36:20.156Z,96321.25
2022-11-17T03:38:55.534Z,96326.22
2022-11-17T03:41:23.899Z,96317.22
2022-11-17T03:43:52.709Z,96322.97
2022-11-17T03:46:22.264Z,96319.88
2022-11-17T03:48:51.706Z,96320.13
2022-11-17T03:51:24.865Z,96309.38
2022-11-17T03:53:53.884Z,96307.41
2022-11-17T03:56:38.397Z,96319.00
2022-11-17T03:59:19.252Z,96316.41
2022-11-17T04:01:45.985Z,96319.00
2022-11-17T04:04:17.643Z,96310.13
2022-11-17T04:06:44.352Z,96311.41
2022-11-17T04:09:11.528Z,96321.84
2022-11-17T04:11:56.687Z,96327.97
2022-11-17T04:14:41.529Z,96309.34
2022-11-17T04:17:08.269Z,96307.03
2022-11-17T04:19:34.872Z,96308.31
2022-11-17T04:22:01.551Z,96311.09
2022-11-17T04:24:28.237Z,96309.44
2022-11-17T04:27:13.392Z,96309.13
2022-11-17T04:29:40.086Z,96307.53
2022-11-17T04:32:06.734Z,96303.22
2022-11-17T04:34:33.393Z,96298.56
2022-11-17T04:37:03.877Z,96293.03
2022-11-17T04:39:34.255Z,96290.31
2022-11-17T04:42:05.031Z,96282.50
2022-11-17T04:44:32.588Z,96287.72
2022-11-17T04:47:02.137Z,96288.31
2022-11-17T04:49:29.443Z,96279.78
2022-11-17T04:51:56.081Z,96279.47
2022-11-17T04:54:24.860Z,96281.38
2022-11-17T04:59:25.687Z,96287.81
2022-11-17T05:01:52.400Z,96279.63
2022-11-17T05:04:39.500Z,96289.41
2022-11-17T05:07:07.459Z,96284.31
2022-11-17T05:09:34.127Z,96287.03
2022-11-17T05:12:19.321Z,96290.13
2022-11-17T05:14:47.830Z,96283.06
2022-11-17T05:17:14.557Z,96293.16
2022-11-17T05:19:46.727Z,96295.00
2022-11-17T05:22:35.184Z,96300.50
2022-11-17T05:27:40.341Z,96295.06
2022-11-17T05:30:08.401Z,96301.78
2022-11-17T05:32:35.036Z,96303.59
2022-11-17T05:35:01.687Z,96298.84
2022-11-17T05:37:28.350Z,96298.50
2022-11-17T05:42:26.298Z,96307.91
2022-11-17T05:44:53.002Z,96310.56
2022-11-17T05:47:19.694Z,96311.34
2022-11-17T05:49:46.356Z,96318.34
2022-11-17T05:52:13.131Z,96307.78
2022-11-17T05:54:39.759Z,96320.66
2022-11-17T05:57:17.256Z,96326.06
2022-11-17T05:59:50.495Z,96323.59
2022-11-17T06:02:26.920Z,96312.56
2022-11-17T06:04:53.595Z,96293.28
2022-11-17T06:07:20.919Z,96297.06
2022-11-17T06:09:48.002Z,96301.78
2022-11-17T06:12:15.670Z,96307.53
2022-11-17T06:14:42.817Z,96298.94
2022-11-17T06:17:28.942Z,96296.19
2022-11-17T06:20:01.325Z,96305.50
2022-11-17T06:25:08.463Z,96317.94
2022-11-17T06:27:37.120Z,96316.28
2022-11-17T06:30:05.553Z,96310.13
2022-11-17T06:32:35.054Z,96306.22
2022-11-17T06:35:06.480Z,96304.91
2022-11-17T06:37:33.196Z,96308.81
2022-11-17T06:39:59.980Z,96313.13
2022-11-17T06:42:45.086Z,96309.25
2022-11-17T06:45:12.059Z,96313.78
2022-11-17T06:47:38.730Z,96322.81
2022-11-17T06:50:05.922Z,96321.63
2022-11-17T06:52:32.562Z,96333.78
2022-11-17T06:54:59.170Z,96338.72
2022-11-17T06:57:25.779Z,96338.72
2022-11-17T06:59:52.778Z,96339.53
2022-11-17T07:02:20.182Z,96337.41
2022-11-17T07:04:46.895Z,96319.84
2022-11-17T07:07:13.662Z,96320.91
2022-11-17T07:09:40.472Z,96325.84
2022-11-17T07:12:07.112Z,96327.00
2022-11-17T07:14:33.805Z,96317.00
2022-11-17T07:17:00.424Z,96305.13
2022-11-17T07:19:27.137Z,96299.78
2022-11-17T07:21:53.736Z,96307.84
2022-11-17T07:24:20.408Z,96325.41
2022-11-17T07:26:47.158Z,96322.66
2022-11-17T07:29:13.946Z,96318.00
2022-11-17T07:31:40.601Z,96319.41
2022-11-17T07:34:07.256Z,96312.75
2022-11-17T07:36:33.892Z,96303.72
2022-11-17T07:39:00.572Z,96294.78
2022-11-17T07:41:27.456Z,96304.09
2022-11-17T07:46:25.750Z,96298.91
2022-11-17T07:48:56.207Z,96305.91
2022-11-17T07:51:22.900Z,96298.00
2022-11-17T07:53:49.604Z,96307.59
2022-11-17T07:56:16.235Z,96306.78
2022-11-17T07:58:43.032Z,96310.56
2022-11-17T08:01:14.772Z,96308.94
2022-11-17T08:03:42.645Z,96315.53
2022-11-17T08:06:10.168Z,96313.91
2022-11-17T08:08:38.779Z,96316.66
2022-11-17T08:11:11.889Z,96304.03
2022-11-17T08:13:40.012Z,96310.69
2022-11-17T08:16:07.616Z,96317.69
2022-11-17T08:18:35.171Z,96319.44
2022-11-17T08:21:10.239Z,96332.25
2022-11-17T08:23:37.657Z,96331.84
2022-11-17T08:26:05.413Z,96334.63
2022-11-17T08:28:32.281Z,96327.34
2022-11-17T08:31:01.704Z,96322.81
2022-11-17T08:33:28.581Z,96318.47
2022-11-17T08:35:59.436Z,96337.16
2022-11-17T08:38:29.242Z,96331.28
2022-11-17T08:41:02.126Z,96333.66
2022-11-17T08:43:28.990Z,96323.22
2022-11-17T08:45:55.636Z,96322.81
2022-11-17T08:48:23.020Z,96326.16
2022-11-17T08:50:51.580Z,96329.44
2022-11-17T08:53:20.591Z,96339.88
2022-11-17T08:55:47.732Z,96342.88
2022-11-17T08:58:14.429Z,96337.41
2022-11-17T09:00:42.078Z,96352.16
2022-11-17T09:03:10.432Z,96359.91
2022-11-17T09:05:40.210Z,96349.34
2022-11-17T09:08:37.879Z,96346.53
2022-11-17T09:10:55.244Z,96340.28
2022-11-17T09:15:53.261Z,96371.69
2022-11-17T09:18:19.943Z,96376.81
2022-11-17T09:20:46.708Z,96372.50
2022-11-17T09:23:13.454Z,96369.94
2022-11-17T09:25:40.142Z,96372.59
2022-11-17T09:28:07.050Z,96371.06
2022-11-17T09:30:33.732Z,96369.84
2022-11-17T09:33:00.474Z,96367.91
2022-11-17T09:35:27.079Z,96373.28
2022-11-17T09:37:59.078Z,96379.03
2022-11-17T09:40:25.860Z,96372.03
2022-11-17T09:42:52.532Z,96382.53
2022-11-17T09:45:30.445Z,96387.31
2022-11-17T09:48:39.421Z,96392.78
2022-11-17T09:51:00.410Z,96400.16
2022-11-17T09:53:48.993Z,96398.94
2022-11-17T09:56:16.198Z,96395.25
2022-11-17T09:58:56.925Z,96391.59
2022-11-17T10:01:24.040Z,96390.31
2022-11-17T10:03:51.467Z,96391.94
2022-11-17T10:06:23.831Z,96393.47
2022-11-17T10:09:25.725Z,96405.97
2022-11-17T10:11:54.901Z,96406.66
2022-11-17T10:14:22.645Z,96407.34
2022-11-17T10:16:58.367Z,96400.53
2022-11-17T10:19:24.931Z,96403.78
2022-11-17T10:22:12.820Z,96397.13
2022-11-17T10:24:42.590Z,96397.31
2022-11-17T10:27:22.283Z,96395.09
2022-11-17T10:30:03.210Z,96395.59
2022-11-17T10:32:32.538Z,96397.88
2022-11-17T10:35:34.008Z,96398.47
2022-11-17T10:38:21.068Z,96395.75
2022-11-17T10:40:51.016Z,96397.78
2022-11-17T10:43:26.801Z,96405.66
2022-11-17T10:46:04.317Z,96394.19
2022-11-17T10:48:36.274Z,96390.16
2022-11-17T10:51:19.687Z,96402.75
2022-11-17T10:54:07.081Z,96387.34
2022-11-17T10:56:41.475Z,96389.94
2022-11-17T10:59:30.393Z,96391.72
2022-11-17T11:01:57.802Z,96396.34
2022-11-17T11:04:35.095Z,96414.25
2022-11-17T11:07:23.072Z,96400.41
2022-11-17T11:10:11.002Z,96387.63
2022-11-17T11:12:54.633Z,96395.91
2022-11-17T11:15:24.829Z,96389.03
2022-11-17T11:17:52.034Z,96389.97
2022-11-17T11:20:24.237Z,96389.47
2022-11-17T11:23:06.279Z,96398.47
2022-11-17T11:25:41.413Z,96389.56
2022-11-17T11:28:16.748Z,96389.56
2022-11-17T11:31:33.616Z,96379.56
2022-11-17T11:34:06.339Z,96388.19
2022-11-17T11:36:50.720Z,96392.03
2022-11-17T11:39:54.877Z,96390.25
2022-11-17T11:42:36.797Z,96392.78
2022-11-17T11:45:17.787Z,96392.47
2022-11-17T11:47:47.208Z,96402.41
2022-11-17T11:50:22.169Z,96400.41
2022-11-17T11:52:56.712Z,96398.09
2022-11-17T11:55:36.129Z,96402.84
2022-11-17T11:58:07.556Z,96412.19
2022-11-17T12:00:34.755Z,96409.00
2022-11-17T12:03:10.435Z,96404.28
2022-11-17T12:06:24.016Z,96409.88
2022-11-17T12:09:01.706Z,96397.34
2022-11-17T12:11:47.301Z,96399.56
2022-11-17T12:14:18.153Z,96398.53
2022-11-17T12:16:46.677Z,96402.38
2022-11-17T12:19:44.421Z,96400.94
2022-11-17T12:22:24.931Z,96397.03
2022-11-17T12:24:57.668Z,96401.56
2022-11-17T12:30:32.856Z,96411.41
2022-11-17T12:33:09.052Z,96417.97
2022-11-17T12:35:38.095Z,96417.16
2022-11-17T12:38:22.603Z,96432.09
2022-11-17T12:40:51.271Z,96431.97
2022-11-17T12:43:28.016Z,96419.53
2022-11-17T12:46:13.139Z,96425.31
2022-11-17T12:48:52.752Z,96431.44
2022-11-17T12:51:21.940Z,96420.19
2022-11-17T12:53:54.422Z,96418.97
2022-11-17T12:56:36.747Z,96418.78
2022-11-17T12:59:17.703Z,96408.06
2022-11-17T13:01:58.111Z,96416.28
2022-11-17T13:04:36.691Z,96419.13
2022-11-17T13:07:16.331Z,96417.25
2022-11-17T13:09:42.968Z,96425.69
2022-11-17T13:12:11.166Z,96425.59
2022-11-17T13:14:53.418Z,96421.88
2022-11-17T13:17:22.557Z,96413.34
2022-11-17T13:19:59.248Z,96406.34
2022-11-17T13:22:26.080Z,96403.25
2022-11-17T13:24:54.035Z,96404.78
2022-11-17T13:27:31.239Z,96398.91
2022-11-17T13:30:14.161Z,96406.38
2022-11-17T13:32:42.141Z,96398.66
2022-11-17T13:35:23.362Z,96397.25
2022-11-17T13:38:22.110Z,96407.44
2022-11-17T13:40:51.413Z,96408.31
2022-11-17T13:43:20.759Z,96413.03
2022-11-17T13:45:51.503Z,96401.19
2022-11-17T13:48:48.463Z,96417.38
2022-11-17T13:51:28.001Z,96404.88
2022-11-17T13:53:58.600Z,96406.09
2022-11-17T13:56:31.198Z,96424.28
2022-11-17T13:58:59.717Z,96416.63
2022-11-17T14:01:29.625Z,96422.03
2022-11-17T14:04:20.625Z,96411.72
2022-11-17T14:07:02.359Z,96409.31
2022-11-17T14:09:31.572Z,96419.50
2022-11-17T14:11:59.092Z,96415.44
2022-11-17T14:14:34.485Z,96411.13
2022-11-17T14:17:20.816Z,96409.38
2022-11-17T14:19:48.151Z,96412.53
2022-11-17T14:22:22.303Z,96405.00
2022-11-17T14:24:50.539Z,96408.94
2022-11-17T14:27:29.856Z,96413.31
2022-11-17T14:29:56.481Z,96412.19
2022-11-17T14:32:23.270Z,96407.28
2022-11-17T14:34:49.860Z,96397.50
2022-11-17T14:37:17.075Z,96410.03
2022-11-17T14:39:43.715Z,96397.16
2022-11-17T14:42:11.353Z,96407.81
2022-11-17T14:44:38.030Z,96404.81
2022-11-17T14:47:04.743Z,96409.63
2022-11-17T14:52:02.955Z,96399.63
2022-11-17T14:54:29.575Z,96402.47
2022-11-17T14:56:56.186Z,96402.03
2022-11-17T14:59:22.842Z,96403.44
2022-11-17T15:01:49.505Z,96389.72
2022-11-17T15:04:43.347Z,96393.66
2022-11-17T15:07:03.468Z,96393.13
2022-11-17T15:09:30.328Z,96392.38
2022-11-17T15:11:57.061Z,96393.75
2022-11-17T15:14:23.668Z,96386.81
2022-11-17T15:16:50.321Z,96391.66
2022-11-17T15:19:16.997Z,96391.88
2022-11-17T15:21:43.633Z,96402.50
2022-11-17T15:24:10.409Z,96390.56
2022-11-17T15:26:37.227Z,96382.91
2022-11-17T15:29:03.885Z,96382.09
2022-11-17T15:31:30.547Z,96377.84
2022-11-17T15:33:57.504Z,96385.66
2022-11-17T15:36:24.511Z,96385.28
2022-11-17T15:38:51.232Z,96372.53
2022-11-17T15:41:17.915Z,96383.50
2022-11-17T15:43:45.636Z,96372.63
2022-11-17T15:46:18.120Z,96366.47
2022-11-17T15:48:47.204Z,96372.75
2022-11-17T15:51:16.481Z,96373.00
2022-11-17T15:53:44.951Z,96369.22
2022-11-17T15:58:58.638Z,96366.94
2022-11-17T16:01:30.730Z,96370.03
2022-11-17T16:04:02.697Z,96362.06
2022-11-17T16:06:30.733Z,96364.81
2022-11-17T16:08:57.897Z,96367.88
2022-11-17T16:11:25.910Z,96371.97
2022-11-17T16:13:56.743Z,96372.66
2022-11-17T16:16:25.623Z,96370.34
2022-11-17T16:18:52.221Z,96363.25
2022-11-17T16:21:19.013Z,96366.84
2022-11-17T16:26:27.223Z,96365.22
2022-11-17T16:29:11.801Z,96371.81
2022-11-17T16:31:39.277Z,96365.13
2022-11-17T16:36:46.927Z,96374.91
2022-11-17T16:39:20.284Z,96362.66
2022-11-17T16:41:47.552Z,96360.41
2022-11-17T16:44:17.161Z,96364.47
2022-11-17T16:46:45.859Z,96365.81
2022-11-17T16:49:15.293Z,96352.03
2022-11-17T16:51:48.264Z,96361.28
2022-11-17T16:54:14.981Z,96366.75
2022-11-17T16:56:41.992Z,96359.16
2022-11-17T16:59:10.607Z,96361.38
2022-11-17T17:01:37.233Z,96367.88
2022-11-17T17:04:06.874Z,96357.63
2022-11-17T17:06:34.705Z,96362.28
2022-11-17T17:09:03.531Z,96367.50
2022-11-17T17:11:31.984Z,96358.78
2022-11-17T17:14:00.389Z,96370.94
2022-11-17T17:16:27.256Z,96371.97
2022-11-17T17:19:02.309Z,96368.63
2022-11-17T17:21:30.119Z,96372.69
2022-11-17T17:23:57.528Z,96371.69
2022-11-17T17:26:26.506Z,96371.75
2022-11-17T17:28:56.488Z,96378.00
2022-11-17T17:31:25.225Z,96376.38
2022-11-17T17:33:53.024Z,96383.22
2022-11-17T17:36:21.968Z,96382.88
2022-11-17T17:38:55.196Z,96389.56
2022-11-17T17:41:24.757Z,96394.31
2022-11-17T17:43:57.370Z,96390.31
2022-11-17T17:46:25.073Z,96401.09
2022-11-17T17:48:51.901Z,96395.06
2022-11-17T17:51:20.570Z,96396.09
2022-11-17T17:53:50.716Z,96392.59
2022-11-17T17:56:19.667Z,96388.50
2022-11-17T17:58:48.936Z,96392.44
2022-11-17T18:01:16.840Z,96379.50
2022-11-17T18:03:48.455Z,96384.28
2022-11-17T18:06:17.949Z,96370.09
2022-11-17T18:08:45.433Z,96370.53
2022-11-17T18:11:14.512Z,96385.25
2022-11-17T18:13:43.193Z,96384.38
2022-11-17T18:16:13.379Z,96381.41
2022-11-17T18:18:40.741Z,96390.88
2022-11-17T18:21:09.849Z,96387.78
2022-11-17T18:23:38.039Z,96388.06
2022-11-17T18:26:19.525Z,96383.38
2022-11-17T18:31:38.214Z,96377.53
2022-11-17T18:34:18.923Z,96381.41
2022-11-17T18:36:45.587Z,96389.59
2022-11-17T18:41:50.529Z,96383.88
2022-11-17T18:44:21.044Z,96396.88
2022-11-17T18:46:48.066Z,96397.91
2022-11-17T18:49:15.137Z,96397.97
2022-11-17T18:51:42.141Z,96394.94
2022-11-17T18:54:11.134Z,96395.59
2022-11-17T18:56:38.581Z,96406.13
2022-11-17T18:59:11.429Z,96415.28
2022-11-17T19:01:40.159Z,96413.56
2022-11-17T19:04:07.226Z,96412.72
2022-11-17T19:06:34.018Z,96414.34
2022-11-17T19:09:01.127Z,96416.56
2022-11-17T19:11:30.914Z,96424.00
2022-11-17T19:13:59.266Z,96425.56
2022-11-17T19:16:26.686Z,96431.88
2022-11-17T19:18:54.878Z,96430.31
2022-11-17T19:21:25.953Z,96444.97
2022-11-17T19:26:28.159Z,96441.63
2022-11-17T19:28:59.186Z,96439.91
2022-11-17T19:31:26.915Z,96437.75
2022-11-17T19:36:32.045Z,96445.97
2022-11-17T19:39:01.149Z,96452.44
2022-11-17T19:41:31.081Z,96455.75
2022-11-17T19:44:00.246Z,96452.66
2022-11-17T19:46:28.755Z,96455.97
2022-11-17T19:48:56.389Z,96456.19
2022-11-17T19:51:29.334Z,96459.97
2022-11-17T19:53:58.114Z,96467.53
2022-11-17T19:56:25.801Z,96471.75
2022-11-17T19:58:54.008Z,96482.16
2022-11-17T20:01:26.152Z,96485.00
2022-11-17T20:03:53.119Z,96493.63
2022-11-17T20:06:22.199Z,96496.00
2022-11-17T20:08:49.333Z,96507.41
2022-11-17T20:11:21.330Z,96515.38
2022-11-17T20:13:48.055Z,96520.63
2022-11-17T20:16:20.525Z,96520.75
2022-11-17T20:21:25.866Z,96521.41
2022-11-17T20:23:52.637Z,96514.03
2022-11-17T20:28:57.637Z,96506.75
2022-11-17T20:31:31.636Z,96510.13
2022-11-17T20:34:02.305Z,96494.91
2022-11-17T20:36:31.589Z,96495.69
2022-11-17T20:39:03.908Z,96497.16
2022-11-17T20:41:31.035Z,96511.31
2022-11-17T20:43:59.619Z,96522.19
2022-11-17T20:46:27.293Z,96523.28
2022-11-17T20:48:53.905Z,96531.25
2022-11-17T20:51:22.238Z,96546.19
2022-11-17T20:53:49.568Z,96545.63
2022-11-17T20:56:17.301Z,96548.47
2022-11-17T20:58:44.587Z,96559.81
2022-11-17T21:01:14.739Z,96554.75
2022-11-17T21:03:42.314Z,96562.19
2022-11-17T21:06:09.098Z,96574.31
2022-11-17T21:08:38.618Z,96571.53
2022-11-17T21:11:11.903Z,96570.00
2022-11-17T21:13:38.597Z,96576.41
2022-11-17T21:16:11.514Z,96576.03
2022-11-17T21:18:40.389Z,96571.09
2022-11-17T21:21:09.769Z,96582.06
2022-11-17T21:23:37.781Z,96577.25
2022-11-17T21:26:06.196Z,96578.53
2022-11-17T21:28:33.256Z,96574.53
2022-11-17T21:31:06.416Z,96571.94
2022-11-17T21:33:33.422Z,96571.16
2022-11-17T21:36:01.957Z,96572.72
2022-11-17T21:38:29.672Z,96582.44
2022-11-17T21:41:01.889Z,96582.91
2022-11-17T21:43:28.506Z,96587.63
2022-11-17T21:45:55.136Z,96597.56
2022-11-17T21:48:21.765Z,96589.88
2022-11-17T21:50:48.702Z,96589.56
2022-11-17T21:53:15.323Z,96590.84
2022-11-17T21:55:42.039Z,96588.94
2022-11-17T21:58:08.636Z,96587.84
2022-11-17T22:00:35.365Z,96583.66
2022-11-17T22:03:02.101Z,96585.00
2022-11-17T22:05:28.729Z,96590.00
2022-11-17T22:07:55.396Z,96601.38
2022-11-17T22:10:22.107Z,96598.75
2022-11-17T22:12:48.660Z,96593.00
2022-11-17T22:15:15.349Z,96594.50
2022-11-17T22:20:13.322Z,96574.38
2022-11-17T22:22:40.112Z,96567.75
2022-11-17T22:25:29.859Z,96571.22
2022-11-17T22:27:53.470Z,96562.34
2022-11-17T22:30:20.096Z,96560.44
2022-11-17T22:32:46.723Z,96567.09
2022-11-17T22:37:51.407Z,96565.72
2022-11-17T22:40:18.125Z,96557.06
2022-11-17T22:42:44.737Z,96556.63
2022-11-17T22:45:11.458Z,96551.75
2022-11-17T22:47:38.191Z,96547.97
2022-11-17T22:52:38.606Z,96539.38
2022-11-17T22:55:05.911Z,96549.94
2022-11-17T22:57:32.555Z,96544.16
2022-11-17T22:59:59.184Z,96545.78
2022-11-17T23:02:25.847Z,96552.41
2022-11-17T23:04:52.513Z,96545.69
2022-11-17T23:07:19.192Z,96550.06
2022-11-17T23:09:45.867Z,96551.28
2022-11-17T23:12:12.487Z,96545.09
2022-11-17T23:14:39.057Z,96544.31
2022-11-17T23:17:05.815Z,96547.78
2022-11-17T23:19:32.444Z,96534.94
2022-11-17T23:21:59.101Z,96531.00
2022-11-17T23:24:25.721Z,96547.00
2022-11-17T23:26:52.388Z,96543.09
2022-11-17T23:29:19.501Z,96545.34
2022-11-17T23:31:46.322Z,96547.69
2022-11-17T23:34:13.068Z,96538.00
2022-11-17T23:36:39.810Z,96543.06
2022-11-17T23:39:06.465Z,96536.03
2022-11-17T23:41:33.153Z,96535.22
2022-11-17T23:43:59.993Z,96530.91
2022-11-17T23:46:27.371Z,96538.22
2022-11-17T23:48:54.925Z,96528.19
2022-11-17T23:51:24.150Z,96534.03
2022-11-17T23:53:51.297Z,96524.31
2022-11-17T23:56:20.692Z,96530.59
2022-11-17T23:58:47.779Z,96536.34
